sensor_id;sensor_type;location;lat;lon;timestamp;P1;durP1;ratioP1;P2;durP2;ratioP2
71629;SDS011;59479;51.902;8.212;2024-01-15T00:00:11;9.10;;;4.43;;
71629;SDS011;59479;51.902;8.212;2024-01-15T00:02:37;10.57;;;4.50;;
71629;SDS011;59479;51.902;8.212;2024-01-15T00:05:02;7.28;;;3.60;;
71629;SDS011;59479;51.902;8.212;2024-01-15T00:07:28;10.70;;;4.90;;
71629;SDS011;59479;51.902;8.212;2024-01-15T00:09:53;7.30;;;3.93;;
71629;SDS011;59479;51.902;8.212;2024-01-15T00:12:18;7.27;;;4.13;;
71629;SDS011;59479;51.902;8.212;2024-01-15T00:14:43;7.33;;;3.83;;
71629;SDS011;59479;51.902;8.212;2024-01-15T00:17:09;7.70;;;4.03;;
71629;SDS011;59479;51.902;8.212;2024-01-15T00:19:34;8.37;;;4.07;;
71629;SDS011;59479;51.902;8.212;2024-01-15T00:21:59;6.87;;;3.67;;
71629;SDS011;59479;51.902;8.212;2024-01-15T00:24:25;6.13;;;3.20;;
71629;SDS011;59479;51.902;8.212;2024-01-15T00:26:50;5.07;;;2.73;;
71629;SDS011;59479;51.902;8.212;2024-01-15T00:29:15;5.30;;;3.67;;
71629;SDS011;59479;51.902;8.212;2024-01-15T00:31:41;5.27;;;3.13;;
71629;SDS011;59479;51.902;8.212;2024-01-15T00:34:06;5.77;;;2.90;;
71629;SDS011;59479;51.902;8.212;2024-01-15T00:36:32;6.47;;;3.10;;
71629;SDS011;59479;51.902;8.212;2024-01-15T00:38:57;6.17;;;3.43;;
71629;SDS011;59479;51.902;8.212;2024-01-15T00:41:22;6.53;;;3.03;;
71629;SDS011;59479;51.902;8.212;2024-01-15T00:43:48;7.38;;;3.33;;
71629;SDS011;59479;51.902;8.212;2024-01-15T00:46:14;7.50;;;3.23;;
71629;SDS011;59479;51.902;8.212;2024-01-15T00:48:40;7.10;;;3.50;;
71629;SDS011;59479;51.902;8.212;2024-01-15T00:51:05;6.80;;;3.33;;
71629;SDS011;59479;51.902;8.212;2024-01-15T00:53:30;8.37;;;3.93;;
71629;SDS011;59479;51.902;8.212;2024-01-15T00:55:56;6.47;;;2.95;;
71629;SDS011;59479;51.902;8.212;2024-01-15T00:58:22;8.40;;;3.27;;
71629;SDS011;59479;51.902;8.212;2024-01-15T01:00:47;7.67;;;2.80;;
71629;SDS011;59479;51.902;8.212;2024-01-15T01:03:12;6.17;;;3.00;;
71629;SDS011;59479;51.902;8.212;2024-01-15T01:05:38;8.95;;;3.65;;
71629;SDS011;59479;51.902;8.212;2024-01-15T01:08:03;6.90;;;3.60;;
71629;SDS011;59479;51.902;8.212;2024-01-15T01:10:29;6.90;;;3.20;;
71629;SDS011;59479;51.902;8.212;2024-01-15T01:12:54;6.57;;;3.40;;
71629;SDS011;59479;51.902;8.212;2024-01-15T01:15:19;6.37;;;3.57;;
71629;SDS011;59479;51.902;8.212;2024-01-15T01:17:45;6.10;;;3.07;;
71629;SDS011;59479;51.902;8.212;2024-01-15T01:20:11;5.22;;;3.53;;
71629;SDS011;59479;51.902;8.212;2024-01-15T01:22:36;9.55;;;3.83;;
71629;SDS011;59479;51.902;8.212;2024-01-15T01:25:02;7.35;;;3.58;;
71629;SDS011;59479;51.902;8.212;2024-01-15T01:27:28;7.93;;;4.83;;
71629;SDS011;59479;51.902;8.212;2024-01-15T01:29:53;8.63;;;4.23;;
71629;SDS011;59479;51.902;8.212;2024-01-15T01:32:19;9.57;;;4.40;;
71629;SDS011;59479;51.902;8.212;2024-01-15T01:34:44;8.23;;;3.43;;
71629;SDS011;59479;51.902;8.212;2024-01-15T01:37:10;6.67;;;3.67;;
71629;SDS011;59479;51.902;8.212;2024-01-15T01:39:38;7.10;;;3.72;;
71629;SDS011;59479;51.902;8.212;2024-01-15T01:42:04;10.70;;;3.67;;
71629;SDS011;59479;51.902;8.212;2024-01-15T01:44:29;7.65;;;3.08;;
71629;SDS011;59479;51.902;8.212;2024-01-15T01:46:54;7.63;;;3.70;;
71629;SDS011;59479;51.902;8.212;2024-01-15T01:49:22;8.85;;;3.42;;
71629;SDS011;59479;51.902;8.212;2024-01-15T01:51:48;8.17;;;3.23;;
71629;SDS011;59479;51.902;8.212;2024-01-15T01:54:13;6.30;;;3.30;;
71629;SDS011;59479;51.902;8.212;2024-01-15T01:56:40;6.60;;;3.00;;
71629;SDS011;59479;51.902;8.212;2024-01-15T01:59:06;7.13;;;2.70;;
71629;SDS011;59479;51.902;8.212;2024-01-15T02:01:34;6.07;;;3.67;;
71629;SDS011;59479;51.902;8.212;2024-01-15T02:04:00;7.03;;;3.13;;
71629;SDS011;59479;51.902;8.212;2024-01-15T02:06:26;5.60;;;2.97;;
71629;SDS011;59479;51.902;8.212;2024-01-15T02:08:52;7.10;;;3.37;;
71629;SDS011;59479;51.902;8.212;2024-01-15T02:11:17;7.47;;;2.97;;
71629;SDS011;59479;51.902;8.212;2024-01-15T02:13:42;6.73;;;3.37;;
71629;SDS011;59479;51.902;8.212;2024-01-15T02:16:08;6.60;;;3.47;;
71629;SDS011;59479;51.902;8.212;2024-01-15T02:18:42;13.23;;;4.13;;
71629;SDS011;59479;51.902;8.212;2024-01-15T02:21:09;7.68;;;3.25;;
71629;SDS011;59479;51.902;8.212;2024-01-15T02:23:36;5.70;;;2.90;;
71629;SDS011;59479;51.902;8.212;2024-01-15T02:26:02;7.93;;;3.20;;
71629;SDS011;59479;51.902;8.212;2024-01-15T02:28:28;7.38;;;3.65;;
71629;SDS011;59479;51.902;8.212;2024-01-15T02:30:54;7.47;;;3.28;;
71629;SDS011;59479;51.902;8.212;2024-01-15T02:33:19;10.43;;;3.03;;
71629;SDS011;59479;51.902;8.212;2024-01-15T02:35:44;7.83;;;3.20;;
71629;SDS011;59479;51.902;8.212;2024-01-15T02:38:11;14.03;;;5.00;;
71629;SDS011;59479;51.902;8.212;2024-01-15T02:40:37;11.07;;;3.95;;
71629;SDS011;59479;51.902;8.212;2024-01-15T02:43:03;6.03;;;3.43;;
71629;SDS011;59479;51.902;8.212;2024-01-15T02:45:29;8.48;;;3.25;;
71629;SDS011;59479;51.902;8.212;2024-01-15T02:47:54;5.20;;;2.77;;
71629;SDS011;59479;51.902;8.212;2024-01-15T02:50:20;7.07;;;3.27;;
71629;SDS011;59479;51.902;8.212;2024-01-15T02:52:45;9.07;;;3.47;;
71629;SDS011;59479;51.902;8.212;2024-01-15T02:55:10;9.97;;;3.87;;
71629;SDS011;59479;51.902;8.212;2024-01-15T02:57:36;7.40;;;3.50;;
71629;SDS011;59479;51.902;8.212;2024-01-15T03:00:01;6.77;;;3.43;;
71629;SDS011;59479;51.902;8.212;2024-01-15T03:02:28;11.15;;;4.47;;
71629;SDS011;59479;51.902;8.212;2024-01-15T03:04:53;6.07;;;3.40;;
71629;SDS011;59479;51.902;8.212;2024-01-15T03:07:19;5.97;;;2.97;;
71629;SDS011;59479;51.902;8.212;2024-01-15T03:09:44;9.33;;;3.30;;
71629;SDS011;59479;51.902;8.212;2024-01-15T03:12:10;7.80;;;3.30;;
71629;SDS011;59479;51.902;8.212;2024-01-15T03:14:36;9.88;;;3.60;;
71629;SDS011;59479;51.902;8.212;2024-01-15T03:17:01;8.07;;;5.03;;
71629;SDS011;59479;51.902;8.212;2024-01-15T03:19:27;10.20;;;4.00;;
71629;SDS011;59479;51.902;8.212;2024-01-15T03:21:52;7.88;;;2.85;;
71629;SDS011;59479;51.902;8.212;2024-01-15T03:24:18;7.97;;;3.60;;
71629;SDS011;59479;51.902;8.212;2024-01-15T03:26:43;8.83;;;3.93;;
71629;SDS011;59479;51.902;8.212;2024-01-15T03:29:08;8.70;;;3.47;;
71629;SDS011;59479;51.902;8.212;2024-01-15T03:31:34;10.57;;;3.77;;
71629;SDS011;59479;51.902;8.212;2024-01-15T03:33:59;9.17;;;3.60;;
71629;SDS011;59479;51.902;8.212;2024-01-15T03:36:25;9.40;;;3.20;;
71629;SDS011;59479;51.902;8.212;2024-01-15T03:38:50;8.47;;;3.17;;
71629;SDS011;59479;51.902;8.212;2024-01-15T03:41:15;8.20;;;3.27;;
71629;SDS011;59479;51.902;8.212;2024-01-15T03:43:41;9.17;;;3.67;;
71629;SDS011;59479;51.902;8.212;2024-01-15T03:46:06;7.00;;;3.40;;
71629;SDS011;59479;51.902;8.212;2024-01-15T03:48:32;7.53;;;3.67;;
71629;SDS011;59479;51.902;8.212;2024-01-15T03:50:57;14.40;;;3.70;;
71629;SDS011;59479;51.902;8.212;2024-01-15T03:53:23;9.30;;;3.50;;
71629;SDS011;59479;51.902;8.212;2024-01-15T03:55:48;8.27;;;4.07;;
71629;SDS011;59479;51.902;8.212;2024-01-15T03:58:14;9.38;;;3.63;;
71629;SDS011;59479;51.902;8.212;2024-01-15T04:00:40;6.50;;;3.23;;
71629;SDS011;59479;51.902;8.212;2024-01-15T04:03:06;14.07;;;3.92;;
71629;SDS011;59479;51.902;8.212;2024-01-15T04:05:31;8.30;;;3.07;;
71629;SDS011;59479;51.902;8.212;2024-01-15T04:07:56;11.33;;;3.30;;
71629;SDS011;59479;51.902;8.212;2024-01-15T04:10:22;7.90;;;3.63;;
71629;SDS011;59479;51.902;8.212;2024-01-15T04:12:47;6.13;;;3.22;;
71629;SDS011;59479;51.902;8.212;2024-01-15T04:15:12;8.67;;;4.00;;
71629;SDS011;59479;51.902;8.212;2024-01-15T04:17:38;6.33;;;3.60;;
71629;SDS011;59479;51.902;8.212;2024-01-15T04:20:04;6.30;;;3.63;;
71629;SDS011;59479;51.902;8.212;2024-01-15T04:22:29;8.15;;;3.25;;
71629;SDS011;59479;51.902;8.212;2024-01-15T04:24:55;6.80;;;3.27;;
71629;SDS011;59479;51.902;8.212;2024-01-15T04:27:20;9.93;;;3.47;;
71629;SDS011;59479;51.902;8.212;2024-01-15T04:29:45;6.47;;;3.50;;
71629;SDS011;59479;51.902;8.212;2024-01-15T04:32:11;7.97;;;3.50;;
71629;SDS011;59479;51.902;8.212;2024-01-15T04:34:36;8.57;;;3.67;;
71629;SDS011;59479;51.902;8.212;2024-01-15T04:37:01;8.57;;;3.10;;
71629;SDS011;59479;51.902;8.212;2024-01-15T04:39:27;7.77;;;2.97;;
71629;SDS011;59479;51.902;8.212;2024-01-15T04:41:52;7.03;;;3.33;;
71629;SDS011;59479;51.902;8.212;2024-01-15T04:44:18;8.27;;;4.00;;
71629;SDS011;59479;51.902;8.212;2024-01-15T04:46:43;10.70;;;3.40;;
71629;SDS011;59479;51.902;8.212;2024-01-15T04:49:10;7.57;;;3.30;;
71629;SDS011;59479;51.902;8.212;2024-01-15T04:51:36;11.00;;;3.17;;
71629;SDS011;59479;51.902;8.212;2024-01-15T04:54:01;6.67;;;3.20;;
71629;SDS011;59479;51.902;8.212;2024-01-15T04:56:27;5.97;;;2.90;;
71629;SDS011;59479;51.902;8.212;2024-01-15T04:58:52;6.47;;;3.17;;
71629;SDS011;59479;51.902;8.212;2024-01-15T05:01:17;10.80;;;2.63;;
71629;SDS011;59479;51.902;8.212;2024-01-15T05:03:43;8.80;;;3.08;;
71629;SDS011;59479;51.902;8.212;2024-01-15T05:06:08;8.45;;;2.80;;
71629;SDS011;59479;51.902;8.212;2024-01-15T05:08:34;6.40;;;2.63;;
71629;SDS011;59479;51.902;8.212;2024-01-15T05:10:59;6.67;;;2.67;;
71629;SDS011;59479;51.902;8.212;2024-01-15T05:13:25;6.47;;;2.97;;
71629;SDS011;59479;51.902;8.212;2024-01-15T05:15:50;6.63;;;3.77;;
71629;SDS011;59479;51.902;8.212;2024-01-15T05:18:16;5.40;;;2.63;;
71629;SDS011;59479;51.902;8.212;2024-01-15T05:20:41;7.15;;;3.20;;
71629;SDS011;59479;51.902;8.212;2024-01-15T05:23:07;5.93;;;2.67;;
71629;SDS011;59479;51.902;8.212;2024-01-15T05:25:32;5.67;;;2.97;;
71629;SDS011;59479;51.902;8.212;2024-01-15T05:27:58;5.93;;;2.73;;
71629;SDS011;59479;51.902;8.212;2024-01-15T05:30:23;7.87;;;3.10;;
71629;SDS011;59479;51.902;8.212;2024-01-15T05:32:48;6.67;;;3.37;;
71629;SDS011;59479;51.902;8.212;2024-01-15T05:35:14;4.60;;;2.80;;
71629;SDS011;59479;51.902;8.212;2024-01-15T05:37:43;5.88;;;3.35;;
71629;SDS011;59479;51.902;8.212;2024-01-15T05:40:10;6.15;;;3.00;;
71629;SDS011;59479;51.902;8.212;2024-01-15T05:42:36;7.10;;;3.00;;
71629;SDS011;59479;51.902;8.212;2024-01-15T05:45:01;6.73;;;3.13;;
71629;SDS011;59479;51.902;8.212;2024-01-15T05:47:29;9.55;;;3.55;;
71629;SDS011;59479;51.902;8.212;2024-01-15T05:49:55;5.60;;;2.77;;
71629;SDS011;59479;51.902;8.212;2024-01-15T05:52:22;6.72;;;3.42;;
71629;SDS011;59479;51.902;8.212;2024-01-15T05:54:47;6.53;;;2.90;;
71629;SDS011;59479;51.902;8.212;2024-01-15T05:57:13;5.80;;;2.88;;
71629;SDS011;59479;51.902;8.212;2024-01-15T05:59:38;7.32;;;3.00;;
71629;SDS011;59479;51.902;8.212;2024-01-15T06:02:03;6.03;;;3.63;;
71629;SDS011;59479;51.902;8.212;2024-01-15T06:04:29;5.10;;;3.10;;
71629;SDS011;59479;51.902;8.212;2024-01-15T06:06:54;6.87;;;3.67;;
71629;SDS011;59479;51.902;8.212;2024-01-15T06:09:20;12.07;;;4.37;;
71629;SDS011;59479;51.902;8.212;2024-01-15T06:11:45;6.43;;;3.60;;
71629;SDS011;59479;51.902;8.212;2024-01-15T06:14:10;10.97;;;3.60;;
71629;SDS011;59479;51.902;8.212;2024-01-15T06:16:36;5.55;;;3.15;;
71629;SDS011;59479;51.902;8.212;2024-01-15T06:19:01;7.80;;;2.85;;
71629;SDS011;59479;51.902;8.212;2024-01-15T06:21:26;6.23;;;3.07;;
71629;SDS011;59479;51.902;8.212;2024-01-15T06:23:52;5.97;;;3.87;;
71629;SDS011;59479;51.902;8.212;2024-01-15T06:26:17;5.63;;;2.27;;
71629;SDS011;59479;51.902;8.212;2024-01-15T06:28:42;5.67;;;2.97;;
71629;SDS011;59479;51.902;8.212;2024-01-15T06:31:08;8.20;;;2.83;;
71629;SDS011;59479;51.902;8.212;2024-01-15T06:33:33;4.72;;;2.20;;
71629;SDS011;59479;51.902;8.212;2024-01-15T06:35:58;7.87;;;2.63;;
71629;SDS011;59479;51.902;8.212;2024-01-15T06:38:24;9.37;;;2.37;;
71629;SDS011;59479;51.902;8.212;2024-01-15T06:40:50;4.90;;;2.67;;
71629;SDS011;59479;51.902;8.212;2024-01-15T06:43:16;6.70;;;2.55;;
71629;SDS011;59479;51.902;8.212;2024-01-15T06:45:42;5.93;;;3.00;;
71629;SDS011;59479;51.902;8.212;2024-01-15T06:48:10;4.85;;;2.83;;
71629;SDS011;59479;51.902;8.212;2024-01-15T06:50:39;5.05;;;2.70;;
71629;SDS011;59479;51.902;8.212;2024-01-15T06:53:05;4.33;;;1.97;;
71629;SDS011;59479;51.902;8.212;2024-01-15T06:55:30;6.33;;;2.33;;
71629;SDS011;59479;51.902;8.212;2024-01-15T06:57:55;5.67;;;2.63;;
71629;SDS011;59479;51.902;8.212;2024-01-15T07:00:21;7.00;;;3.27;;
71629;SDS011;59479;51.902;8.212;2024-01-15T07:02:46;10.43;;;2.27;;
71629;SDS011;59479;51.902;8.212;2024-01-15T07:05:11;7.05;;;2.58;;
71629;SDS011;59479;51.902;8.212;2024-01-15T07:07:37;3.13;;;1.67;;
71629;SDS011;59479;51.902;8.212;2024-01-15T07:10:02;6.63;;;3.40;;
71629;SDS011;59479;51.902;8.212;2024-01-15T07:12:29;6.22;;;1.90;;
71629;SDS011;59479;51.902;8.212;2024-01-15T07:14:55;3.42;;;1.60;;
71629;SDS011;59479;51.902;8.212;2024-01-15T07:17:21;7.27;;;2.43;;
71629;SDS011;59479;51.902;8.212;2024-01-15T07:19:46;7.00;;;2.45;;
71629;SDS011;59479;51.902;8.212;2024-01-15T07:22:12;4.47;;;1.83;;
71629;SDS011;59479;51.902;8.212;2024-01-15T07:24:37;4.73;;;2.10;;
71629;SDS011;59479;51.902;8.212;2024-01-15T07:27:03;4.17;;;2.23;;
71629;SDS011;59479;51.902;8.212;2024-01-15T07:29:29;4.93;;;2.40;;
71629;SDS011;59479;51.902;8.212;2024-01-15T07:31:57;5.20;;;2.17;;
71629;SDS011;59479;51.902;8.212;2024-01-15T07:34:23;8.07;;;2.37;;
71629;SDS011;59479;51.902;8.212;2024-01-15T07:36:48;5.23;;;2.20;;
71629;SDS011;59479;51.902;8.212;2024-01-15T07:39:14;6.90;;;1.87;;
71629;SDS011;59479;51.902;8.212;2024-01-15T07:41:39;9.88;;;2.95;;
71629;SDS011;59479;51.902;8.212;2024-01-15T07:44:05;3.57;;;2.07;;
71629;SDS011;59479;51.902;8.212;2024-01-15T07:46:30;3.97;;;1.97;;
71629;SDS011;59479;51.902;8.212;2024-01-15T07:48:57;3.30;;;2.10;;
71629;SDS011;59479;51.902;8.212;2024-01-15T07:51:25;4.85;;;2.30;;
71629;SDS011;59479;51.902;8.212;2024-01-15T07:53:52;4.25;;;1.80;;
71629;SDS011;59479;51.902;8.212;2024-01-15T07:56:18;7.57;;;2.35;;
71629;SDS011;59479;51.902;8.212;2024-01-15T07:58:43;3.83;;;2.00;;
71629;SDS011;59479;51.902;8.212;2024-01-15T08:01:09;7.10;;;2.47;;
71629;SDS011;59479;51.902;8.212;2024-01-15T08:03:34;6.30;;;2.65;;
71629;SDS011;59479;51.902;8.212;2024-01-15T08:06:00;5.37;;;2.50;;
71629;SDS011;59479;51.902;8.212;2024-01-15T08:08:25;4.37;;;1.70;;
71629;SDS011;59479;51.902;8.212;2024-01-15T08:10:53;5.55;;;2.50;;
71629;SDS011;59479;51.902;8.212;2024-01-15T08:13:19;4.77;;;2.47;;
71629;SDS011;59479;51.902;8.212;2024-01-15T08:15:45;3.63;;;1.98;;
71629;SDS011;59479;51.902;8.212;2024-01-15T08:18:10;4.60;;;2.60;;
71629;SDS011;59479;51.902;8.212;2024-01-15T08:20:36;4.20;;;2.00;;
71629;SDS011;59479;51.902;8.212;2024-01-15T08:23:01;3.70;;;1.80;;
71629;SDS011;59479;51.902;8.212;2024-01-15T08:25:27;7.43;;;2.58;;
71629;SDS011;59479;51.902;8.212;2024-01-15T08:27:52;4.25;;;2.45;;
71629;SDS011;59479;51.902;8.212;2024-01-15T08:30:17;5.80;;;2.87;;
71629;SDS011;59479;51.902;8.212;2024-01-15T08:32:47;4.05;;;2.33;;
71629;SDS011;59479;51.902;8.212;2024-01-15T08:35:12;5.13;;;2.30;;
71629;SDS011;59479;51.902;8.212;2024-01-15T08:37:38;8.03;;;2.50;;
71629;SDS011;59479;51.902;8.212;2024-01-15T08:40:03;6.17;;;3.07;;
71629;SDS011;59479;51.902;8.212;2024-01-15T08:42:29;7.68;;;2.47;;
71629;SDS011;59479;51.902;8.212;2024-01-15T08:44:55;4.70;;;2.37;;
71629;SDS011;59479;51.902;8.212;2024-01-15T08:47:20;7.60;;;2.97;;
71629;SDS011;59479;51.902;8.212;2024-01-15T08:49:46;5.30;;;2.58;;
71629;SDS011;59479;51.902;8.212;2024-01-15T08:52:11;6.53;;;2.50;;
71629;SDS011;59479;51.902;8.212;2024-01-15T08:54:37;5.33;;;2.37;;
71629;SDS011;59479;51.902;8.212;2024-01-15T08:57:02;4.83;;;2.60;;
71629;SDS011;59479;51.902;8.212;2024-01-15T08:59:28;3.95;;;2.20;;
71629;SDS011;59479;51.902;8.212;2024-01-15T09:01:53;4.40;;;2.60;;
71629;SDS011;59479;51.902;8.212;2024-01-15T09:04:19;4.67;;;2.23;;
71629;SDS011;59479;51.902;8.212;2024-01-15T09:06:45;4.15;;;2.10;;
71629;SDS011;59479;51.902;8.212;2024-01-15T09:09:12;4.63;;;2.57;;
71629;SDS011;59479;51.902;8.212;2024-01-15T09:11:38;6.18;;;1.90;;
71629;SDS011;59479;51.902;8.212;2024-01-15T09:14:03;4.97;;;2.27;;
71629;SDS011;59479;51.902;8.212;2024-01-15T09:16:29;4.20;;;2.60;;
71629;SDS011;59479;51.902;8.212;2024-01-15T09:18:54;5.93;;;3.13;;
71629;SDS011;59479;51.902;8.212;2024-01-15T09:21:22;4.40;;;1.93;;
71629;SDS011;59479;51.902;8.212;2024-01-15T09:23:47;5.85;;;2.40;;
71629;SDS011;59479;51.902;8.212;2024-01-15T09:26:12;7.17;;;2.97;;
71629;SDS011;59479;51.902;8.212;2024-01-15T09:28:38;4.23;;;2.93;;
71629;SDS011;59479;51.902;8.212;2024-01-15T09:31:03;6.70;;;2.20;;
71629;SDS011;59479;51.902;8.212;2024-01-15T09:33:28;4.70;;;2.23;;
71629;SDS011;59479;51.902;8.212;2024-01-15T09:35:54;5.67;;;2.37;;
71629;SDS011;59479;51.902;8.212;2024-01-15T09:38:20;6.25;;;1.88;;
71629;SDS011;59479;51.902;8.212;2024-01-15T09:40:45;4.23;;;1.80;;
71629;SDS011;59479;51.902;8.212;2024-01-15T09:43:12;3.08;;;1.52;;
71629;SDS011;59479;51.902;8.212;2024-01-15T09:45:38;4.10;;;2.08;;
71629;SDS011;59479;51.902;8.212;2024-01-15T09:48:04;4.70;;;2.13;;
71629;SDS011;59479;51.902;8.212;2024-01-15T09:50:29;3.95;;;2.28;;
71629;SDS011;59479;51.902;8.212;2024-01-15T09:52:55;3.13;;;2.10;;
71629;SDS011;59479;51.902;8.212;2024-01-15T09:55:22;3.60;;;1.70;;
71629;SDS011;59479;51.902;8.212;2024-01-15T09:57:48;5.77;;;2.10;;
71629;SDS011;59479;51.902;8.212;2024-01-15T10:00:14;6.00;;;1.92;;
71629;SDS011;59479;51.902;8.212;2024-01-15T10:02:42;3.38;;;1.40;;
71629;SDS011;59479;51.902;8.212;2024-01-15T10:05:07;3.60;;;1.67;;
71629;SDS011;59479;51.902;8.212;2024-01-15T10:07:34;3.63;;;1.67;;
71629;SDS011;59479;51.902;8.212;2024-01-15T10:10:00;5.63;;;1.85;;
71629;SDS011;59479;51.902;8.212;2024-01-15T10:12:26;3.40;;;1.80;;
71629;SDS011;59479;51.902;8.212;2024-01-15T10:14:52;3.42;;;1.42;;
71629;SDS011;59479;51.902;8.212;2024-01-15T10:17:17;5.03;;;1.77;;
71629;SDS011;59479;51.902;8.212;2024-01-15T10:19:43;3.87;;;1.83;;
71629;SDS011;59479;51.902;8.212;2024-01-15T10:22:10;9.02;;;1.67;;
71629;SDS011;59479;51.902;8.212;2024-01-15T10:24:37;4.40;;;1.77;;
71629;SDS011;59479;51.902;8.212;2024-01-15T10:27:08;4.93;;;1.80;;
71629;SDS011;59479;51.902;8.212;2024-01-15T10:29:34;3.35;;;1.92;;
71629;SDS011;59479;51.902;8.212;2024-01-15T10:32:01;8.40;;;2.17;;
71629;SDS011;59479;51.902;8.212;2024-01-15T10:34:26;3.65;;;1.95;;
71629;SDS011;59479;51.902;8.212;2024-01-15T10:36:52;6.90;;;2.13;;
71629;SDS011;59479;51.902;8.212;2024-01-15T10:39:23;7.28;;;2.30;;
71629;SDS011;59479;51.902;8.212;2024-01-15T10:41:50;3.72;;;1.40;;
71629;SDS011;59479;51.902;8.212;2024-01-15T10:44:18;3.60;;;2.30;;
71629;SDS011;59479;51.902;8.212;2024-01-15T10:46:44;4.75;;;2.10;;
71629;SDS011;59479;51.902;8.212;2024-01-15T10:49:13;4.50;;;2.57;;
71629;SDS011;59479;51.902;8.212;2024-01-15T10:51:39;3.75;;;1.85;;
71629;SDS011;59479;51.902;8.212;2024-01-15T10:54:04;7.32;;;2.10;;
71629;SDS011;59479;51.902;8.212;2024-01-15T10:56:31;3.65;;;1.70;;
71629;SDS011;59479;51.902;8.212;2024-01-15T10:59:00;3.65;;;1.80;;
71629;SDS011;59479;51.902;8.212;2024-01-15T11:01:25;4.68;;;1.77;;
71629;SDS011;59479;51.902;8.212;2024-01-15T11:03:51;3.15;;;1.60;;
71629;SDS011;59479;51.902;8.212;2024-01-15T11:06:20;2.93;;;1.47;;
71629;SDS011;59479;51.902;8.212;2024-01-15T11:08:49;5.07;;;2.08;;
71629;SDS011;59479;51.902;8.212;2024-01-15T11:11:16;4.35;;;2.35;;
71629;SDS011;59479;51.902;8.212;2024-01-15T11:13:42;4.13;;;2.38;;
71629;SDS011;59479;51.902;8.212;2024-01-15T11:16:13;5.23;;;2.73;;
71629;SDS011;59479;51.902;8.212;2024-01-15T11:18:43;3.60;;;1.98;;
71629;SDS011;59479;51.902;8.212;2024-01-15T11:21:27;3.17;;;1.83;;
71629;SDS011;59479;51.902;8.212;2024-01-15T11:28:58;7.63;;;2.00;;
71629;SDS011;59479;51.902;8.212;2024-01-15T11:34:03;4.25;;;2.20;;
71629;SDS011;59479;51.902;8.212;2024-01-15T11:41:56;3.78;;;1.60;;
71629;SDS011;59479;51.902;8.212;2024-01-15T11:44:24;4.90;;;2.28;;
71629;SDS011;59479;51.902;8.212;2024-01-15T11:47:03;4.07;;;1.60;;
71629;SDS011;59479;51.902;8.212;2024-01-15T11:57:50;6.55;;;2.38;;
71629;SDS011;59479;51.902;8.212;2024-01-15T12:00:21;5.13;;;1.30;;
71629;SDS011;59479;51.902;8.212;2024-01-15T12:02:48;4.10;;;1.55;;
71629;SDS011;59479;51.902;8.212;2024-01-15T12:05:18;3.75;;;2.08;;
71629;SDS011;59479;51.902;8.212;2024-01-15T12:07:45;4.15;;;1.60;;
71629;SDS011;59479;51.902;8.212;2024-01-15T12:10:19;4.00;;;1.90;;
71629;SDS011;59479;51.902;8.212;2024-01-15T12:12:54;2.90;;;1.60;;
71629;SDS011;59479;51.902;8.212;2024-01-15T12:15:26;3.00;;;1.55;;
71629;SDS011;59479;51.902;8.212;2024-01-15T12:17:57;3.50;;;2.00;;
71629;SDS011;59479;51.902;8.212;2024-01-15T12:20:27;4.95;;;1.95;;
71629;SDS011;59479;51.902;8.212;2024-01-15T12:22:53;3.67;;;2.08;;
71629;SDS011;59479;51.902;8.212;2024-01-15T12:25:20;3.20;;;1.40;;
71629;SDS011;59479;51.902;8.212;2024-01-15T12:27:46;4.60;;;1.67;;
71629;SDS011;59479;51.902;8.212;2024-01-15T12:30:13;3.70;;;1.90;;
71629;SDS011;59479;51.902;8.212;2024-01-15T12:32:40;6.70;;;1.83;;
71629;SDS011;59479;51.902;8.212;2024-01-15T12:35:06;3.47;;;1.52;;
71629;SDS011;59479;51.902;8.212;2024-01-15T12:37:32;4.13;;;1.70;;
71629;SDS011;59479;51.902;8.212;2024-01-15T12:40:00;3.10;;;1.30;;
71629;SDS011;59479;51.902;8.212;2024-01-15T12:42:26;3.20;;;1.50;;
71629;SDS011;59479;51.902;8.212;2024-01-15T12:44:54;2.80;;;1.57;;
71629;SDS011;59479;51.902;8.212;2024-01-15T12:47:21;4.82;;;2.10;;
71629;SDS011;59479;51.902;8.212;2024-01-15T12:49:47;3.20;;;1.88;;
71629;SDS011;59479;51.902;8.212;2024-01-15T12:52:15;6.35;;;1.77;;
71629;SDS011;59479;51.902;8.212;2024-01-15T12:54:43;4.70;;;1.63;;
71629;SDS011;59479;51.902;8.212;2024-01-15T12:57:09;4.20;;;2.10;;
71629;SDS011;59479;51.902;8.212;2024-01-15T12:59:34;3.33;;;1.83;;
71629;SDS011;59479;51.902;8.212;2024-01-15T13:01:59;5.13;;;1.57;;
71629;SDS011;59479;51.902;8.212;2024-01-15T13:04:25;4.53;;;1.63;;
71629;SDS011;59479;51.902;8.212;2024-01-15T13:06:50;6.60;;;2.25;;
71629;SDS011;59479;51.902;8.212;2024-01-15T13:09:16;4.07;;;2.07;;
71629;SDS011;59479;51.902;8.212;2024-01-15T13:11:42;3.60;;;1.38;;
71629;SDS011;59479;51.902;8.212;2024-01-15T13:14:09;5.78;;;1.80;;
71629;SDS011;59479;51.902;8.212;2024-01-15T13:16:35;4.17;;;2.10;;
71629;SDS011;59479;51.902;8.212;2024-01-15T13:19:00;4.13;;;2.00;;
71629;SDS011;59479;51.902;8.212;2024-01-15T13:21:26;3.37;;;1.77;;
71629;SDS011;59479;51.902;8.212;2024-01-15T13:23:51;3.50;;;1.70;;
71629;SDS011;59479;51.902;8.212;2024-01-15T13:26:16;5.67;;;1.90;;
71629;SDS011;59479;51.902;8.212;2024-01-15T13:28:43;3.55;;;1.70;;
71629;SDS011;59479;51.902;8.212;2024-01-15T13:31:09;4.25;;;1.77;;
71629;SDS011;59479;51.902;8.212;2024-01-15T13:33:34;3.37;;;1.80;;
71629;SDS011;59479;51.902;8.212;2024-01-15T13:35:59;2.93;;;1.40;;
71629;SDS011;59479;51.902;8.212;2024-01-15T13:38:25;3.77;;;1.77;;
71629;SDS011;59479;51.902;8.212;2024-01-15T13:40:51;4.00;;;1.50;;
71629;SDS011;59479;51.902;8.212;2024-01-15T13:43:16;2.87;;;1.10;;
71629;SDS011;59479;51.902;8.212;2024-01-15T13:45:43;4.15;;;1.55;;
71629;SDS011;59479;51.902;8.212;2024-01-15T13:48:08;2.90;;;1.23;;
71629;SDS011;59479;51.902;8.212;2024-01-15T13:50:34;3.80;;;1.50;;
71629;SDS011;59479;51.902;8.212;2024-01-15T13:53:00;2.97;;;1.75;;
71629;SDS011;59479;51.902;8.212;2024-01-15T13:55:26;2.72;;;1.50;;
71629;SDS011;59479;51.902;8.212;2024-01-15T13:57:53;9.23;;;2.55;;
71629;SDS011;59479;51.902;8.212;2024-01-15T14:00:19;3.60;;;1.53;;
71629;SDS011;59479;51.902;8.212;2024-01-15T14:02:45;9.20;;;2.47;;
71629;SDS011;59479;51.902;8.212;2024-01-15T14:05:11;3.70;;;1.58;;
71629;SDS011;59479;51.902;8.212;2024-01-15T14:07:38;3.63;;;1.40;;
71629;SDS011;59479;51.902;8.212;2024-01-15T14:10:04;5.97;;;1.97;;
71629;SDS011;59479;51.902;8.212;2024-01-15T14:12:30;4.47;;;1.80;;
71629;SDS011;59479;51.902;8.212;2024-01-15T14:14:56;3.58;;;1.70;;
71629;SDS011;59479;51.902;8.212;2024-01-15T14:17:21;3.03;;;1.50;;
71629;SDS011;59479;51.902;8.212;2024-01-15T14:19:47;2.87;;;1.30;;
71629;SDS011;59479;51.902;8.212;2024-01-15T14:22:12;5.90;;;1.60;;
71629;SDS011;59479;51.902;8.212;2024-01-15T14:24:37;3.63;;;1.87;;
71629;SDS011;59479;51.902;8.212;2024-01-15T14:27:03;3.97;;;2.00;;
71629;SDS011;59479;51.902;8.212;2024-01-15T14:29:30;3.85;;;1.98;;
71629;SDS011;59479;51.902;8.212;2024-01-15T14:31:55;4.40;;;1.30;;
71629;SDS011;59479;51.902;8.212;2024-01-15T14:34:21;3.77;;;1.87;;
71629;SDS011;59479;51.902;8.212;2024-01-15T14:36:48;2.80;;;1.30;;
71629;SDS011;59479;51.902;8.212;2024-01-15T14:39:14;2.90;;;1.60;;
71629;SDS011;59479;51.902;8.212;2024-01-15T14:41:40;3.23;;;1.63;;
71629;SDS011;59479;51.902;8.212;2024-01-15T14:44:05;4.57;;;2.00;;
71629;SDS011;59479;51.902;8.212;2024-01-15T14:46:30;2.90;;;1.30;;
71629;SDS011;59479;51.902;8.212;2024-01-15T14:48:56;2.60;;;1.27;;
71629;SDS011;59479;51.902;8.212;2024-01-15T14:51:22;2.73;;;1.33;;
71629;SDS011;59479;51.902;8.212;2024-01-15T14:53:47;3.00;;;1.80;;
71629;SDS011;59479;51.902;8.212;2024-01-15T14:56:12;4.33;;;1.40;;
71629;SDS011;59479;51.902;8.212;2024-01-15T14:58:38;3.40;;;1.63;;
71629;SDS011;59479;51.902;8.212;2024-01-15T15:01:03;2.87;;;1.67;;